Time;durP1;ratioP1;P1;durP2;ratioP2;P2;SDS_P1;SDS_P2;PMS_P1;PMS_P2;Temp;Humidity;BMP_temperature;BMP_pressure;BME280_temperature;BME280_humidity;BME280_pressure;Samples;Min_cycle;Max_cycle;Signal;HPM_P1;HPM_P2
2022/01/06 00:00:45;;;;;;;4.03;1.60;;;;;;;;;;5055771;28;20217;-86
2022/01/06 00:03:14;;;;;;;9.13;4.83;;;;;;;;;;5056010;28;20248;-86
2022/01/06 00:05:44;;;;;;;8.57;3.40;;;;;;;;;;5055743;28;20210;-86
2022/01/06 00:08:13;;;;;;;1.33;1.30;;;;;;;;;;5056049;28;20229;-86
2022/01/06 00:10:41;;;;;;;3.17;1.87;;;;;;;;;;5055330;28;20211;-86
2022/01/06 00:13:14;;;;;;;9.33;2.73;;;;;;;;;;5056208;28;20209;-86
2022/01/06 00:15:58;;;;;;;6.63;2.13;;;;;;;;;;5056304;28;20272;-86
2022/01/06 00:18:40;;;;;;;5.63;3.33;;;;;;;;;;5055433;28;20298;-86
2022/01/06 00:23:56;;;;;;;2.53;1.70;;;;;;;;;;5055218;28;20210;-86
2022/01/06 00:26:24;;;;;;;3.67;1.90;;;;;;;;;;5055445;28;20202;-86
2022/01/06 00:28:53;;;;;;;6.20;1.90;;;;;;;;;;5055047;28;20207;-86
2022/01/06 00:31:21;;;;;;;1.53;1.53;;;;;;;;;;5055408;28;20222;-86
2022/01/06 00:33:50;;;;;;;7.40;1.40;;;;;;;;;;5055692;28;20210;-86
2022/01/06 00:36:19;;;;;;;8.80;1.33;;;;;;;;;;5055281;28;20230;-86
2022/01/06 00:38:48;;;;;;;1.37;1.37;;;;;;;;;;5055015;28;20206;-86
2022/01/06 00:41:16;;;;;;;9.43;3.60;;;;;;;;;;5054859;28;20230;-86
2022/01/06 00:43:45;;;;;;;6.73;1.63;;;;;;;;;;5054866;28;20234;-86
2022/01/06 00:46:13;;;;;;;12.50;1.30;;;;;;;;;;5055312;28;20214;-86
2022/01/06 00:48:42;;;;;;;1.80;1.17;;;;;;;;;;5054958;28;20232;-86
2022/01/06 00:51:10;;;;;;;11.30;3.03;;;;;;;;;;5054727;28;20237;-86
2022/01/06 00:53:40;;;;;;;8.17;2.50;;;;;;;;;;5054880;28;20252;-86
2022/01/06 00:56:09;;;;;;;1.90;1.10;;;;;;;;;;5054624;28;20285;-86
2022/01/06 00:58:37;;;;;;;5.60;2.20;;;;;;;;;;5054795;28;20206;-86
2022/01/06 01:01:06;;;;;;;2.37;2.07;;;;;;;;;;5054631;28;20285;-86
2022/01/06 01:03:34;;;;;;;2.47;2.07;;;;;;;;;;5043877;28;20234;-86
2022/01/06 01:06:03;;;;;;;4.33;1.70;;;;;;;;;;5034556;28;20231;-86
2022/01/06 01:08:33;;;;;;;4.10;2.70;;;;;;;;;;5034546;28;20211;-86
2022/01/06 01:11:02;;;;;;;7.90;4.57;;;;;;;;;;5034504;28;20194;-86
2022/01/06 01:13:32;;;;;;;6.00;1.80;;;;;;;;;;5034245;28;20234;-87
2022/01/06 01:16:10;;;;;;;13.97;2.13;;;;;;;;;;5034729;28;20248;-86
2022/01/06 01:18:45;;;;;;;5.83;1.73;;;;;;;;;;5034421;28;20198;-86
2022/01/06 01:21:14;;;;;;;2.87;1.83;;;;;;;;;;5033389;28;20252;-86
2022/01/06 01:23:42;;;;;;;9.70;2.57;;;;;;;;;;5034450;28;20260;-86
2022/01/06 01:26:12;;;;;;;11.17;2.50;;;;;;;;;;5034597;28;20259;-86
2022/01/06 01:28:45;;;;;;;4.97;1.70;;;;;;;;;;5034518;28;20258;-86
2022/01/06 01:31:24;;;;;;;3.30;1.97;;;;;;;;;;5034061;28;20253;-86
2022/01/06 01:33:56;;;;;;;2.63;1.50;;;;;;;;;;5034919;28;20210;-86
2022/01/06 01:36:25;;;;;;;4.17;1.63;;;;;;;;;;5034283;28;20207;-87
2022/01/06 01:38:54;;;;;;;1.93;1.83;;;;;;;;;;5034435;28;20225;-86
2022/01/06 01:41:24;;;;;;;7.03;2.73;;;;;;;;;;5034215;28;20246;-86
2022/01/06 01:43:55;;;;;;;7.83;2.40;;;;;;;;;;5016735;28;20195;-87
2022/01/06 01:46:28;;;;;;;2.47;2.23;;;;;;;;;;5034354;28;20203;-86
2022/01/06 01:49:14;;;;;;;1.23;1.23;;;;;;;;;;5034355;28;20237;-86
2022/01/06 01:51:43;;;;;;;1.27;1.27;;;;;;;;;;5034189;28;20203;-86
2022/01/06 01:54:11;;;;;;;1.00;1.00;;;;;;;;;;5033728;28;20212;-86
2022/01/06 01:56:41;;;;;;;13.27;1.83;;;;;;;;;;5046908;28;20330;-86
2022/01/06 01:59:10;;;;;;;0.80;0.80;;;;;;;;;;5054240;28;20201;-87
2022/01/06 02:01:38;;;;;;;4.70;1.83;;;;;;;;;;5053838;28;20285;-87
2022/01/06 02:04:07;;;;;;;3.33;1.97;;;;;;;;;;5053996;28;20222;-87
2022/01/06 02:06:35;;;;;;;5.87;1.80;;;;;;;;;;5054041;28;20245;-86
2022/01/06 02:09:04;;;;;;;4.70;1.70;;;;;;;;;;5053734;28;20207;-88
2022/01/06 02:11:32;;;;;;;5.00;1.43;;;;;;;;;;5053688;28;20225;-86
2022/01/06 02:14:05;;;;;;;6.70;1.30;;;;;;;;;;5054163;28;20203;-87
2022/01/06 02:16:33;;;;;;;1.17;1.00;;;;;;;;;;5053760;28;20202;-86
2022/01/06 02:19:04;;;;;;;9.20;2.43;;;;;;;;;;5053542;28;20235;-86
2022/01/06 02:21:39;;;;;;;5.30;1.57;;;;;;;;;;5054041;28;20222;-86
2022/01/06 02:24:08;;;;;;;1.77;1.67;;;;;;;;;;5053597;28;20248;-87
2022/01/06 02:26:36;;;;;;;1.00;1.00;;;;;;;;;;5053466;28;20271;-86
2022/01/06 02:29:05;;;;;;;5.63;3.10;;;;;;;;;;5053697;28;20284;-86
2022/01/06 02:31:40;;;;;;;1.33;1.23;;;;;;;;;;5053620;28;20222;-86
2022/01/06 02:34:09;;;;;;;11.13;1.53;;;;;;;;;;5057443;28;20210;-86
2022/01/06 02:36:39;;;;;;;5.50;1.33;;;;;;;;;;5057662;28;20206;-86
2022/01/06 02:39:09;;;;;;;1.37;1.30;;;;;;;;;;5057699;28;20206;-86
2022/01/06 02:41:37;;;;;;;0.80;0.80;;;;;;;;;;5057397;28;20234;-86
2022/01/06 02:44:06;;;;;;;3.13;1.13;;;;;;;;;;5057608;28;20242;-86
2022/01/06 02:46:39;;;;;;;1.93;1.37;;;;;;;;;;5056968;28;20213;-86
2022/01/06 02:49:11;;;;;;;0.80;0.80;;;;;;;;;;5057379;28;20201;-86
2022/01/06 02:51:41;;;;;;;1.00;1.00;;;;;;;;;;5057220;28;20325;-87
2022/01/06 02:54:10;;;;;;;2.80;1.47;;;;;;;;;;5057650;28;20270;-86
2022/01/06 02:56:38;;;;;;;0.90;0.90;;;;;;;;;;5056825;28;20234;-87
2022/01/06 02:59:07;;;;;;;6.87;2.67;;;;;;;;;;5057126;28;20264;-86
2022/01/06 03:01:38;;;;;;;0.80;0.80;;;;;;;;;;5057276;28;20206;-86
2022/01/06 03:04:07;;;;;;;2.47;1.43;;;;;;;;;;5056739;28;20230;-86
2022/01/06 03:06:35;;;;;;;4.80;4.60;;;;;;;;;;5056728;28;20263;-87
2022/01/06 03:09:05;;;;;;;0.80;0.80;;;;;;;;;;5056898;28;20198;-87
2022/01/06 03:11:39;;;;;;;0.93;0.93;;;;;;;;;;5057064;28;20229;-86
2022/01/06 03:14:08;;;;;;;4.23;1.00;;;;;;;;;;5056609;28;20270;-87
2022/01/06 03:16:36;;;;;;;0.80;0.80;;;;;;;;;;5056818;28;20237;-86
2022/01/06 03:19:05;;;;;;;0.80;0.80;;;;;;;;;;5056757;28;20241;-86
2022/01/06 03:21:33;;;;;;;1.47;1.40;;;;;;;;;;5057049;28;20199;-86
2022/01/06 03:24:03;;;;;;;0.80;0.80;;;;;;;;;;5056483;28;20230;-87
2022/01/06 03:26:33;;;;;;;0.80;0.80;;;;;;;;;;5056328;28;20234;-87
2022/01/06 03:29:02;;;;;;;5.93;4.30;;;;;;;;;;5056255;28;20350;-86
2022/01/06 03:31:32;;;;;;;0.80;0.80;;;;;;;;;;5056526;28;20229;-86
2022/01/06 03:34:00;;;;;;;0.80;0.80;;;;;;;;;;5056077;28;20198;-87
2022/01/06 03:36:29;;;;;;;0.80;0.80;;;;;;;;;;5056691;28;20202;-86
2022/01/06 03:38:57;;;;;;;4.23;1.17;;;;;;;;;;5056116;28;20213;-87
2022/01/06 03:41:25;;;;;;;0.80;0.80;;;;;;;;;;5056354;28;20253;-87
2022/01/06 03:43:56;;;;;;;6.43;2.00;;;;;;;;;;5055236;28;20246;-87
2022/01/06 03:46:24;;;;;;;1.27;1.27;;;;;;;;;;5056105;28;20202;-87
2022/01/06 03:48:53;;;;;;;2.47;2.30;;;;;;;;;;5056591;28;20210;-86
2022/01/06 03:51:23;;;;;;;0.80;0.80;;;;;;;;;;5056179;28;20259;-86
2022/01/06 03:53:51;;;;;;;0.80;0.80;;;;;;;;;;5056159;28;20202;-86
2022/01/06 03:56:20;;;;;;;5.03;2.40;;;;;;;;;;5055925;28;20229;-87
2022/01/06 03:58:49;;;;;;;2.93;2.83;;;;;;;;;;5056033;28;20242;-86
2022/01/06 04:01:19;;;;;;;0.90;0.90;;;;;;;;;;5056159;28;20214;-87
2022/01/06 04:03:49;;;;;;;1.07;1.07;;;;;;;;;;5055574;28;20234;-86
2022/01/06 04:06:17;;;;;;;0.80;0.80;;;;;;;;;;5055682;28;20233;-86
2022/01/06 04:08:46;;;;;;;4.93;1.53;;;;;;;;;;5055850;28;20206;-86
2022/01/06 04:11:14;;;;;;;1.10;1.10;;;;;;;;;;5055879;28;20225;-86
2022/01/06 04:13:42;;;;;;;0.80;0.80;;;;;;;;;;5055421;28;20291;-87
2022/01/06 04:16:14;;;;;;;0.80;0.80;;;;;;;;;;5055380;28;20253;-86
2022/01/06 04:18:44;;;;;;;1.00;1.00;;;;;;;;;;5055710;28;20202;-87
2022/01/06 04:21:13;;;;;;;0.70;0.70;;;;;;;;;;5055765;28;20233;-86
2022/01/06 04:23:41;;;;;;;0.77;0.77;;;;;;;;;;5053020;28;20261;-86
2022/01/06 04:26:10;;;;;;;0.80;0.80;;;;;;;;;;5035176;28;20262;-87
2022/01/06 04:28:38;;;;;;;1.00;1.00;;;;;;;;;;5035604;28;20238;-86
2022/01/06 04:31:07;;;;;;;0.80;0.80;;;;;;;;;;5035375;28;20271;-87
2022/01/06 04:33:35;;;;;;;0.80;0.80;;;;;;;;;;5035174;28;20199;-87
2022/01/06 04:36:06;;;;;;;0.70;0.70;;;;;;;;;;5035108;28;20207;-86
2022/01/06 04:38:36;;;;;;;0.80;0.80;;;;;;;;;;5035681;28;20199;-86
2022/01/06 04:41:04;;;;;;;0.70;0.70;;;;;;;;;;5034967;28;20257;-86
2022/01/06 04:43:33;;;;;;;0.70;0.70;;;;;;;;;;5035324;28;20224;-86
2022/01/06 04:46:06;;;;;;;0.70;0.70;;;;;;;;;;5035079;28;20279;-86
2022/01/06 04:48:37;;;;;;;0.77;0.77;;;;;;;;;;5035334;28;20211;-86
2022/01/06 04:51:07;;;;;;;0.70;0.70;;;;;;;;;;5035013;28;20195;-86
2022/01/06 04:53:36;;;;;;;0.70;0.70;;;;;;;;;;5035474;28;20211;-86
2022/01/06 04:56:04;;;;;;;0.80;0.80;;;;;;;;;;5042032;28;20291;-86
2022/01/06 04:58:33;;;;;;;0.80;0.80;;;;;;;;;;5054741;28;20276;-86
2022/01/06 05:01:01;;;;;;;0.70;0.70;;;;;;;;;;5054464;28;20230;-87
2022/01/06 05:03:30;;;;;;;1.90;1.37;;;;;;;;;;5054333;28;20281;-87
2022/01/06 05:05:58;;;;;;;2.53;1.50;;;;;;;;;;5054848;28;20218;-86
2022/01/06 05:08:29;;;;;;;0.90;0.90;;;;;;;;;;5054923;28;20218;-87
2022/01/06 05:10:58;;;;;;;2.63;1.67;;;;;;;;;;5054595;28;20297;-86
2022/01/06 05:13:26;;;;;;;4.13;2.80;;;;;;;;;;5054593;28;20233;-86
2022/01/06 05:15:55;;;;;;;0.90;0.90;;;;;;;;;;5054971;28;20206;-86
2022/01/06 05:18:23;;;;;;;0.80;0.80;;;;;;;;;;5054553;28;20202;-87
2022/01/06 05:20:52;;;;;;;1.00;1.00;;;;;;;;;;5054654;28;20233;-87
2022/01/06 05:23:20;;;;;;;1.73;1.07;;;;;;;;;;5054030;28;20341;-86
2022/01/06 05:25:50;;;;;;;0.90;0.90;;;;;;;;;;5054276;28;20241;-87
2022/01/06 05:28:18;;;;;;;0.80;0.80;;;;;;;;;;5054417;28;20241;-86
2022/01/06 05:30:47;;;;;;;0.87;0.87;;;;;;;;;;5054368;28;20205;-86
2022/01/06 05:33:15;;;;;;;0.80;0.80;;;;;;;;;;5054368;28;20222;-86
2022/01/06 05:35:44;;;;;;;0.80;0.80;;;;;;;;;;5054359;28;20269;-86
2022/01/06 05:38:12;;;;;;;1.20;1.20;;;;;;;;;;5053970;28;20213;-87
2022/01/06 05:40:40;;;;;;;0.80;0.80;;;;;;;;;;5054011;28;20230;-86
2022/01/06 05:43:13;;;;;;;0.80;0.80;;;;;;;;;;5054145;28;20223;-86
2022/01/06 05:45:42;;;;;;;0.80;0.80;;;;;;;;;;5054133;28;20198;-86
2022/01/06 05:48:10;;;;;;;0.80;0.80;;;;;;;;;;5054198;28;20250;-86
2022/01/06 05:50:39;;;;;;;0.80;0.80;;;;;;;;;;5054326;28;20237;-87
2022/01/06 05:53:07;;;;;;;0.70;0.70;;;;;;;;;;5054163;28;20218;-86
2022/01/06 05:55:36;;;;;;;0.80;0.80;;;;;;;;;;5053769;28;20258;-86
2022/01/06 05:58:05;;;;;;;0.80;0.80;;;;;;;;;;5054582;28;20186;-86
2022/01/06 06:00:34;;;;;;;0.70;0.70;;;;;;;;;;5053780;28;20202;-86
2022/01/06 06:03:03;;;;;;;0.80;0.80;;;;;;;;;;5053575;28;20221;-86
2022/01/06 06:05:32;;;;;;;0.80;0.80;;;;;;;;;;5053902;28;20262;-86
2022/01/06 06:08:00;;;;;;;0.70;0.70;;;;;;;;;;5056077;28;20206;-86
2022/01/06 06:10:29;;;;;;;0.70;0.70;;;;;;;;;;5058556;28;20269;-86
2022/01/06 06:12:57;;;;;;;0.70;0.70;;;;;;;;;;5057729;28;20210;-86
2022/01/06 06:15:28;;;;;;;0.70;0.70;;;;;;;;;;5058013;28;20206;-85
2022/01/06 06:17:58;;;;;;;0.80;0.80;;;;;;;;;;5058013;28;20233;-87
2022/01/06 06:20:26;;;;;;;0.80;0.80;;;;;;;;;;5057845;28;20261;-86
2022/01/06 06:22:54;;;;;;;0.80;0.80;;;;;;;;;;5058217;28;20217;-86
2022/01/06 06:25:23;;;;;;;1.57;1.47;;;;;;;;;;5041165;28;20251;-85
2022/01/06 06:27:51;;;;;;;0.73;0.73;;;;;;;;;;5037320;28;20215;-85
2022/01/06 06:30:20;;;;;;;0.70;0.70;;;;;;;;;;5037673;28;20234;-85
2022/01/06 06:32:53;;;;;;;0.70;0.70;;;;;;;;;;5037667;28;20206;-86
2022/01/06 06:35:23;;;;;;;0.80;0.80;;;;;;;;;;5037763;28;20230;-85
2022/01/06 06:37:51;;;;;;;0.80;0.80;;;;;;;;;;5037973;28;20214;-85
2022/01/06 06:40:22;;;;;;;0.80;0.80;;;;;;;;;;5037218;28;20661;-85
2022/01/06 06:42:51;;;;;;;1.53;1.53;;;;;;;;;;5037499;28;20237;-85
2022/01/06 06:45:20;;;;;;;0.70;0.70;;;;;;;;;;5036940;28;20227;-84
2022/01/06 06:47:48;;;;;;;0.80;0.80;;;;;;;;;;5037264;28;20230;-85
2022/01/06 06:50:17;;;;;;;2.60;2.53;;;;;;;;;;5038180;28;20249;-87
2022/01/06 06:52:47;;;;;;;0.87;0.87;;;;;;;;;;5037176;28;20206;-86
2022/01/06 06:55:16;;;;;;;0.90;0.90;;;;;;;;;;5038667;28;20230;-86
2022/01/06 06:57:44;;;;;;;0.80;0.80;;;;;;;;;;5057056;28;20191;-86
2022/01/06 07:00:13;;;;;;;0.80;0.80;;;;;;;;;;5057433;28;20213;-86
2022/01/06 07:02:42;;;;;;;0.80;0.80;;;;;;;;;;5057391;28;20230;-86
2022/01/06 07:05:10;;;;;;;0.80;0.80;;;;;;;;;;5057017;28;20265;-86
2022/01/06 07:07:39;;;;;;;0.80;0.80;;;;;;;;;;5056946;28;20205;-86
2022/01/06 07:10:09;;;;;;;1.20;1.20;;;;;;;;;;5057002;28;20202;-87
2022/01/06 07:12:42;;;;;;;0.90;0.90;;;;;;;;;;5057045;28;20238;-86
2022/01/06 07:15:11;;;;;;;1.20;1.20;;;;;;;;;;5057046;28;20269;-86
2022/01/06 07:17:40;;;;;;;0.80;0.80;;;;;;;;;;5057224;28;20233;-86
2022/01/06 07:20:11;;;;;;;0.80;0.80;;;;;;;;;;5055712;28;20217;-86
2022/01/06 07:22:40;;;;;;;0.90;0.90;;;;;;;;;;5056478;28;20202;-86
2022/01/06 07:25:10;;;;;;;0.80;0.80;;;;;;;;;;5056552;28;20277;-86
2022/01/06 07:27:41;;;;;;;0.80;0.80;;;;;;;;;;5056573;28;20252;-86
2022/01/06 07:30:10;;;;;;;0.80;0.80;;;;;;;;;;5056742;28;20217;-86
2022/01/06 07:32:43;;;;;;;1.37;1.37;;;;;;;;;;5056596;28;20209;-86
2022/01/06 07:35:12;;;;;;;0.80;0.80;;;;;;;;;;5056890;28;20231;-86
2022/01/06 07:37:45;;;;;;;0.70;0.70;;;;;;;;;;5056632;28;20206;-86
2022/01/06 07:40:19;;;;;;;1.43;1.43;;;;;;;;;;5056528;28;20198;-85
2022/01/06 07:42:48;;;;;;;1.47;1.47;;;;;;;;;;5056469;28;20297;-85
2022/01/06 07:45:16;;;;;;;2.60;1.20;;;;;;;;;;5055799;28;20288;-82
2022/01/06 07:47:56;;;;;;;0.80;0.80;;;;;;;;;;5056006;28;20199;-82
2022/01/06 07:50:30;;;;;;;0.80;0.80;;;;;;;;;;5055915;28;20216;-82
2022/01/06 07:52:59;;;;;;;1.07;1.07;;;;;;;;;;5055987;28;20329;-82
2022/01/06 07:55:44;;;;;;;0.90;0.90;;;;;;;;;;5051184;28;20234;-82
2022/01/06 07:58:17;;;;;;;2.10;2.10;;;;;;;;;;5035704;28;20247;-82
2022/01/06 08:00:47;;;;;;;3.47;1.97;;;;;;;;;;5035460;28;20319;-82
2022/01/06 08:03:22;;;;;;;11.83;1.93;;;;;;;;;;5035157;28;20230;-82
2022/01/06 08:05:59;;;;;;;0.80;0.80;;;;;;;;;;5035231;28;20230;-82
2022/01/06 08:08:33;;;;;;;0.80;0.80;;;;;;;;;;5035901;28;20210;-82
2022/01/06 08:11:12;;;;;;;0.90;0.90;;;;;;;;;;5027467;28;20206;-82
2022/01/06 08:13:41;;;;;;;0.70;0.70;;;;;;;;;;5035613;28;20344;-82
2022/01/06 08:16:14;;;;;;;2.50;2.40;;;;;;;;;;5035743;28;20254;-82
2022/01/06 08:18:56;;;;;;;0.90;0.90;;;;;;;;;;5035600;28;20207;-83
2022/01/06 08:21:33;;;;;;;0.70;0.70;;;;;;;;;;5035513;28;20286;-82
2022/01/06 08:24:10;;;;;;;0.80;0.80;;;;;;;;;;5035506;28;20195;-83
2022/01/06 08:26:51;;;;;;;1.40;1.13;;;;;;;;;;5035269;28;20209;-83
2022/01/06 08:29:20;;;;;;;0.80;0.80;;;;;;;;;;5034877;28;20207;-83
2022/01/06 08:31:49;;;;;;;0.90;0.90;;;;;;;;;;5035312;28;20210;-83
2022/01/06 08:34:22;;;;;;;0.90;0.90;;;;;;;;;;5035228;28;20206;-83
2022/01/06 08:37:02;;;;;;;0.90;0.90;;;;;;;;;;5034816;28;20250;-83
2022/01/06 08:39:38;;;;;;;0.80;0.80;;;;;;;;;;5034978;28;20250;-83
2022/01/06 08:42:21;;;;;;;0.70;0.70;;;;;;;;;;5034827;28;20207;-83
2022/01/06 08:44:51;;;;;;;0.90;0.90;;;;;;;;;;5034729;28;20219;-83
2022/01/06 08:47:29;;;;;;;1.00;1.00;;;;;;;;;;5034857;28;20194;-83
2022/01/06 08:50:17;;;;;;;0.90;0.90;;;;;;;;;;5034488;28;20203;-85
2022/01/06 08:52:48;;;;;;;0.90;0.90;;;;;;;;;;5034277;28;20223;-83
2022/01/06 08:55:17;;;;;;;0.80;0.80;;;;;;;;;;5035563;28;20225;-83
2022/01/06 08:57:57;;;;;;;9.33;2.00;;;;;;;;;;5054960;28;20202;-88
2022/01/06 09:00:27;;;;;;;0.90;0.90;;;;;;;;;;5054078;28;20206;-83
2022/01/06 09:03:08;;;;;;;0.80;0.80;;;;;;;;;;5054607;28;20309;-83
2022/01/06 09:05:49;;;;;;;4.87;2.37;;;;;;;;;;5054421;28;20223;-83
2022/01/06 09:08:22;;;;;;;0.80;0.80;;;;;;;;;;5054574;28;20252;-83
2022/01/06 09:10:54;;;;;;;0.80;0.80;;;;;;;;;;5054705;28;20256;-83
2022/01/06 09:13:41;;;;;;;0.90;0.90;;;;;;;;;;5054189;28;20206;-83
2022/01/06 09:16:15;;;;;;;0.90;0.90;;;;;;;;;;5054304;28;20223;-83
2022/01/06 09:18:48;;;;;;;0.80;0.80;;;;;;;;;;5054447;28;20216;-83
2022/01/06 09:21:30;;;;;;;0.70;0.70;;;;;;;;;;5054346;28;20209;-83
2022/01/06 09:27:06;;;;;;;1.10;1.10;;;;;;;;;;5047623;28;20287;-82
2022/01/06 09:29:41;;;;;;;0.80;0.80;;;;;;;;;;5053959;28;20206;-82
2022/01/06 09:32:14;;;;;;;0.70;0.70;;;;;;;;;;5054118;28;20206;-84
2022/01/06 09:34:46;;;;;;;0.80;0.80;;;;;;;;;;5053819;28;20305;-83
2022/01/06 09:37:16;;;;;;;0.70;0.70;;;;;;;;;;5053676;28;20297;-83
2022/01/06 09:39:47;;;;;;;0.90;0.90;;;;;;;;;;5054170;28;20209;-83
2022/01/06 09:42:16;;;;;;;1.83;1.83;;;;;;;;;;5052928;28;20202;-83
2022/01/06 09:44:50;;;;;;;0.83;0.83;;;;;;;;;;5053832;28;20258;-83
2022/01/06 09:47:20;;;;;;;0.80;0.80;;;;;;;;;;5053446;28;20237;-83
2022/01/06 09:50:10;;;;;;;0.80;0.80;;;;;;;;;;5053813;28;20285;-83
2022/01/06 09:52:41;;;;;;;0.70;0.70;;;;;;;;;;5054119;28;20209;-83
2022/01/06 09:55:10;;;;;;;0.80;0.80;;;;;;;;;;5053518;28;20210;-82
2022/01/06 09:57:44;;;;;;;0.70;0.70;;;;;;;;;;5053120;28;20238;-83
2022/01/06 10:00:19;;;;;;;0.80;0.80;;;;;;;;;;5053966;28;20209;-83
2022/01/06 10:02:53;;;;;;;1.57;1.57;;;;;;;;;;5053466;28;20245;-83
2022/01/06 10:05:28;;;;;;;0.70;0.70;;;;;;;;;;5053757;28;20214;-83
2022/01/06 10:07:57;;;;;;;0.70;0.70;;;;;;;;;;5053636;28;20203;-83
2022/01/06 10:10:26;;;;;;;0.80;0.80;;;;;;;;;;5053744;28;20210;-83
2022/01/06 10:12:58;;;;;;;1.20;1.20;;;;;;;;;;5053813;28;20206;-83
2022/01/06 10:15:29;;;;;;;0.70;0.70;;;;;;;;;;5053829;28;20211;-83
2022/01/06 10:18:13;;;;;;;10.53;3.10;;;;;;;;;;5053981;28;20214;-82
2022/01/06 10:20:52;;;;;;;0.70;0.70;;;;;;;;;;5053751;28;20261;-83
2022/01/06 10:23:26;;;;;;;0.70;0.70;;;;;;;;;;5053870;28;20219;-83
2022/01/06 10:25:58;;;;;;;0.70;0.70;;;;;;;;;;5053937;28;20218;-83
2022/01/06 10:28:39;;;;;;;2.83;1.40;;;;;;;;;;5053452;28;20217;-84
2022/01/06 10:31:18;;;;;;;1.13;1.13;;;;;;;;;;5053695;28;20232;-84
2022/01/06 10:33:54;;;;;;;0.70;0.70;;;;;;;;;;5053658;28;20203;-83
2022/01/06 10:36:28;;;;;;;0.70;0.70;;;;;;;;;;5053328;28;20219;-83
2022/01/06 10:39:00;;;;;;;0.70;0.70;;;;;;;;;;5053619;28;20205;-83
2022/01/06 10:41:30;;;;;;;4.60;2.23;;;;;;;;;;5052878;28;20209;-83
2022/01/06 10:44:15;;;;;;;1.67;1.57;;;;;;;;;;5053824;28;20227;-83
2022/01/06 10:46:52;;;;;;;1.10;1.10;;;;;;;;;;5053155;28;20236;-83
2022/01/06 10:49:28;;;;;;;0.83;0.83;;;;;;;;;;5053622;28;20204;-83
2022/01/06 10:51:59;;;;;;;1.80;1.13;;;;;;;;;;5053557;28;20214;-83
2022/01/06 10:54:28;;;;;;;1.00;1.00;;;;;;;;;;5055962;28;20210;-83
2022/01/06 10:57:07;;;;;;;7.80;1.80;;;;;;;;;;5056352;28;20235;-83
2022/01/06 10:59:42;;;;;;;2.50;1.13;;;;;;;;;;5057073;28;20226;-83
2022/01/06 11:02:26;;;;;;;0.80;0.80;;;;;;;;;;5056787;28;20215;-83
2022/01/06 11:04:57;;;;;;;2.80;1.50;;;;;;;;;;5056814;28;20211;-83
2022/01/06 11:07:27;;;;;;;1.00;1.00;;;;;;;;;;5056356;28;20219;-83
2022/01/06 11:10:14;;;;;;;3.93;0.87;;;;;;;;;;5057083;28;20207;-84
2022/01/06 11:12:49;;;;;;;2.70;1.40;;;;;;;;;;5056677;28;20213;-83
2022/01/06 11:15:22;;;;;;;6.43;1.40;;;;;;;;;;5056557;28;20228;-83
2022/01/06 11:18:00;;;;;;;6.33;2.37;;;;;;;;;;5056950;28;20198;-83
2022/01/06 11:20:31;;;;;;;8.07;2.00;;;;;;;;;;5056549;28;20260;-83
2022/01/06 11:23:06;;;;;;;6.60;2.40;;;;;;;;;;5056475;28;20211;-83
2022/01/06 11:25:36;;;;;;;3.50;1.13;;;;;;;;;;5056599;28;20257;-83
2022/01/06 11:28:10;;;;;;;7.23;2.17;;;;;;;;;;5056389;28;20234;-83
2022/01/06 11:30:58;;;;;;;;;;;;;;;;;;;;;
2022/01/06 11:37:28;;;;;;;3.13;1.77;;;;;;;;;;5056716;28;20205;-87
2022/01/06 11:50:16;;;;;;;4.10;1.43;;;;;;;;;;4978991;28;20220;-87
2022/01/06 11:52:55;;;;;;;4.27;1.60;;;;;;;;;;4976033;28;20209;-86
2022/01/06 11:58:43;;;;;;;1.37;1.10;;;;;;;;;;4975744;28;20197;-86
2022/01/06 12:01:21;;;;;;;1.57;1.20;;;;;;;;;;4974967;28;20219;-83
2022/01/06 12:03:55;;;;;;;9.13;3.20;;;;;;;;;;4975302;28;20253;-83
2022/01/06 12:06:36;;;;;;;9.17;3.33;;;;;;;;;;4974855;28;20222;-84
2022/01/06 12:09:20;;;;;;;4.93;1.70;;;;;;;;;;4975415;28;20268;-83
2022/01/06 12:12:02;;;;;;;4.37;1.83;;;;;;;;;;4975106;28;20300;-83
2022/01/06 12:14:34;;;;;;;3.63;2.30;;;;;;;;;;5011247;28;20264;-83
2022/01/06 12:17:11;;;;;;;3.77;1.87;;;;;;;;;;5055520;28;20210;-83
2022/01/06 12:19:43;;;;;;;1.00;1.00;;;;;;;;;;5055588;28;20206;-83
2022/01/06 12:22:24;;;;;;;8.97;2.47;;;;;;;;;;5055702;28;20204;-83
2022/01/06 12:25:05;;;;;;;5.67;2.30;;;;;;;;;;5067728;28;20215;-82
2022/01/06 12:27:46;;;;;;;1.87;1.77;;;;;;;;;;5075511;28;20264;-82
2022/01/06 12:30:15;;;;;;;1.50;1.20;;;;;;;;;;5075491;28;20247;-83
2022/01/06 12:32:47;;;;;;;6.73;2.37;;;;;;;;;;5075437;28;20301;-83
2022/01/06 12:35:19;;;;;;;1.90;1.20;;;;;;;;;;5074630;28;20208;-83
2022/01/06 12:38:02;;;;;;;5.87;1.87;;;;;;;;;;5072446;28;20202;-83
2022/01/06 12:40:43;;;;;;;5.37;2.00;;;;;;;;;;5075320;28;20297;-83
2022/01/06 12:43:37;;;;;;;6.83;2.17;;;;;;;;;;5074357;28;20211;-83
2022/01/06 12:46:10;;;;;;;6.90;2.40;;;;;;;;;;5067018;28;20218;-83
2022/01/06 12:48:40;;;;;;;5.13;2.07;;;;;;;;;;5074656;28;20305;-83
2022/01/06 12:51:15;;;;;;;7.00;2.40;;;;;;;;;;5074780;28;20261;-83
2022/01/06 12:53:49;;;;;;;4.07;2.37;;;;;;;;;;5075212;28;20223;-83
2022/01/06 12:56:29;;;;;;;6.70;2.20;;;;;;;;;;5074721;28;20228;-83
2022/01/06 12:58:59;;;;;;;3.47;2.07;;;;;;;;;;5074999;28;20193;-83
2022/01/06 13:01:30;;;;;;;3.87;2.70;;;;;;;;;;5074473;28;20212;-83
2022/01/06 13:04:01;;;;;;;6.57;2.97;;;;;;;;;;5075051;28;20232;-83
2022/01/06 13:06:30;;;;;;;4.63;1.87;;;;;;;;;;5074608;28;20204;-83
2022/01/06 13:09:03;;;;;;;7.83;2.10;;;;;;;;;;5074416;28;20249;-83
2022/01/06 13:11:48;;;;;;;9.60;2.43;;;;;;;;;;5074409;28;20255;-83
2022/01/06 13:14:32;;;;;;;4.17;1.73;;;;;;;;;;5074268;28;20205;-83
2022/01/06 13:17:08;;;;;;;4.50;2.40;;;;;;;;;;5073431;28;20198;-83
2022/01/06 13:19:42;;;;;;;4.23;2.17;;;;;;;;;;5074195;28;20207;-83
2022/01/06 13:22:16;;;;;;;7.43;1.93;;;;;;;;;;5074376;28;20217;-83
2022/01/06 13:24:45;;;;;;;3.77;1.60;;;;;;;;;;5062941;28;20210;-83
2022/01/06 13:27:15;;;;;;;2.67;1.53;;;;;;;;;;5054011;28;20312;-83
2022/01/06 13:29:45;;;;;;;3.60;1.53;;;;;;;;;;5054146;28;20202;-84
2022/01/06 13:32:15;;;;;;;4.63;1.43;;;;;;;;;;5054223;28;20290;-84
2022/01/06 13:34:45;;;;;;;0.97;0.97;;;;;;;;;;5053751;28;20203;-83
2022/01/06 13:37:17;;;;;;;0.90;0.90;;;;;;;;;;5053998;28;20280;-84
2022/01/06 13:39:48;;;;;;;4.87;1.87;;;;;;;;;;5054263;28;20206;-84
2022/01/06 13:42:28;;;;;;;4.47;2.10;;;;;;;;;;5054129;28;20206;-84
2022/01/06 13:45:06;;;;;;;0.90;0.90;;;;;;;;;;5054122;28;20245;-84
2022/01/06 13:47:48;;;;;;;25.93;1.63;;;;;;;;;;5053860;28;20273;-84
2022/01/06 13:53:54;;;;;;;5.90;2.20;;;;;;;;;;5054146;28;20224;-87
2022/01/06 14:00:33;;;;;;;7.73;1.73;;;;;;;;;;5050985;28;20206;-87
2022/01/06 14:14:22;;;;;;;8.23;2.40;;;;;;;;;;5017784;28;20248;-87
2022/01/06 14:17:53;;;;;;;9.97;3.43;;;;;;;;;;4993564;28;20269;-87
2022/01/06 14:21:10;;;;;;;7.07;3.60;;;;;;;;;;5042440;28;20300;-87
2022/01/06 14:27:47;;;;;;;7.13;2.67;;;;;;;;;;5036186;28;20209;-87
2022/01/06 14:31:04;;;;;;;2.50;1.80;;;;;;;;;;5023632;28;20237;-87
2022/01/06 14:34:04;;;;;;;10.07;3.40;;;;;;;;;;5057644;28;20226;-88
2022/01/06 14:37:19;;;;;;;6.63;1.80;;;;;;;;;;4955410;29;20210;-88
2022/01/06 14:46:18;;;;;;;6.07;1.87;;;;;;;;;;4970121;28;20209;-88
2022/01/06 14:53:05;;;;;;;6.33;2.07;;;;;;;;;;4845202;29;20329;-88
2022/01/06 16:32:18;;;;;;;8.80;3.10;;;;;;;;;;4804849;29;20222;-87
2022/01/06 16:34:47;;;;;;;6.40;2.77;;;;;;;;;;4842435;29;20280;-87
2022/01/06 16:37:16;;;;;;;1.63;1.53;;;;;;;;;;4842231;29;20300;-86
2022/01/06 16:39:47;;;;;;;8.67;3.87;;;;;;;;;;4843020;29;20262;-87
2022/01/06 16:42:16;;;;;;;3.33;2.37;;;;;;;;;;4842884;29;20217;-87
2022/01/06 16:44:45;;;;;;;10.37;4.37;;;;;;;;;;4842523;29;20251;-87
2022/01/06 16:47:14;;;;;;;9.83;3.77;;;;;;;;;;4842428;29;20270;-86
2022/01/06 16:49:43;;;;;;;7.33;2.80;;;;;;;;;;4842351;29;20249;-86
2022/01/06 16:52:11;;;;;;;9.60;3.17;;;;;;;;;;4842320;29;20217;-86
2022/01/06 16:54:40;;;;;;;7.60;3.63;;;;;;;;;;4842132;29;20222;-86
2022/01/06 16:57:09;;;;;;;8.97;3.20;;;;;;;;;;4842165;29;20209;-86
2022/01/06 16:59:38;;;;;;;7.30;3.57;;;;;;;;;;4842410;29;20283;-86
2022/01/06 17:02:06;;;;;;;6.97;3.30;;;;;;;;;;4872839;29;20306;-86
2022/01/06 17:04:36;;;;;;;7.37;3.37;;;;;;;;;;4935676;29;20242;-87
2022/01/06 17:07:05;;;;;;;10.80;3.73;;;;;;;;;;4935720;29;20217;-87
2022/01/06 17:09:35;;;;;;;12.00;3.87;;;;;;;;;;4935639;29;20246;-86
2022/01/06 17:12:03;;;;;;;7.27;1.87;;;;;;;;;;4935512;29;20242;-86
2022/01/06 17:14:32;;;;;;;10.53;4.40;;;;;;;;;;4935463;29;20210;-87
2022/01/06 17:17:01;;;;;;;6.40;4.73;;;;;;;;;;4935410;29;20262;-86
2022/01/06 17:19:30;;;;;;;14.83;5.27;;;;;;;;;;4935705;29;20241;-87
2022/01/06 17:22:01;;;;;;;16.07;6.23;;;;;;;;;;4935617;29;20206;-87
2022/01/06 17:24:29;;;;;;;9.10;4.10;;;;;;;;;;4943840;29;20217;-87
2022/01/06 17:26:59;;;;;;;11.70;4.50;;;;;;;;;;4954500;29;20297;-87
2022/01/06 17:29:28;;;;;;;8.80;4.23;;;;;;;;;;4954313;29;20261;-87
2022/01/06 17:32:12;;;;;;;13.47;4.30;;;;;;;;;;4954197;29;20277;-87
2022/01/06 17:34:40;;;;;;;11.50;3.97;;;;;;;;;;4954446;29;20352;-87
2022/01/06 17:37:10;;;;;;;9.60;3.90;;;;;;;;;;4954204;29;20296;-87
2022/01/06 17:39:39;;;;;;;5.43;3.60;;;;;;;;;;4954278;29;20229;-87
2022/01/06 17:42:09;;;;;;;11.57;4.27;;;;;;;;;;4954449;29;20209;-86
2022/01/06 17:44:42;;;;;;;9.10;3.50;;;;;;;;;;4954237;29;20296;-86
2022/01/06 17:47:12;;;;;;;11.77;4.90;;;;;;;;;;4954239;29;20220;-86